Time;durP1;ratioP1;P1;durP2;ratioP2;P2;SDS_P1;SDS_P2;PMS_P1;PMS_P2;Temp;Humidity;BMP_temperature;BMP_pressure;BME280_temperature;BME280_humidity;BME280_pressure;Samples;Min_cycle;Max_cycle;Signal;HPM_P1;HPM_P2
2023/10/15 00:01:33;;;;;;;9.00;5.70;;;28.20;99.90;;;;;;5053053;22;20046;-54
2023/10/15 00:03:59;;;;;;;7.72;4.95;;;28.30;99.90;;;;;;5031774;28;20034;-54
2023/10/15 00:06:25;;;;;;;8.13;5.07;;;28.20;99.90;;;;;;5031903;28;20024;-54
2023/10/15 00:08:51;;;;;;;8.63;5.15;;;28.20;99.90;;;;;;5014329;28;20308;-56
2023/10/15 00:11:23;;;;;;;8.27;4.70;;;28.20;99.90;;;;;;5031871;28;20497;-56
2023/10/15 00:13:50;;;;;;;9.60;5.65;;;28.20;99.90;;;;;;5031852;28;20025;-56
2023/10/15 00:16:20;;;;;;;9.13;4.90;;;28.20;99.90;;;;;;5032079;28;20026;-54
2023/10/15 00:18:46;;;;;;;7.47;5.15;;;28.20;99.90;;;;;;5031901;28;20017;-56
2023/10/15 00:21:12;;;;;;;7.95;4.40;;;28.20;99.90;;;;;;5031941;28;20503;-56
2023/10/15 00:23:40;;;;;;;6.38;4.90;;;28.20;99.90;;;;;;5031709;28;20042;-54
2023/10/15 00:26:07;;;;;;;7.72;4.95;;;28.20;99.90;;;;;;5031851;28;20029;-56
2023/10/15 00:28:33;;;;;;;8.38;4.85;;;28.10;99.90;;;;;;5031705;28;20028;-56
2023/10/15 00:31:08;;;;;;;6.53;4.50;;;28.10;99.90;;;;;;5031782;28;20112;-56
2023/10/15 00:33:34;;;;;;;7.47;4.85;;;28.10;99.90;;;;;;5031738;28;20030;-56
2023/10/15 00:36:00;;;;;;;7.53;4.55;;;28.10;99.90;;;;;;5031545;28;20109;-53
2023/10/15 00:38:26;;;;;;;6.53;4.93;;;28.10;99.90;;;;;;5031682;28;20084;-53
2023/10/15 00:41:18;;;;;;;8.88;4.70;;;28.10;99.90;;;;;;5031612;28;20433;-56
2023/10/15 00:43:55;;;;;;;9.07;5.47;;;28.10;99.90;;;;;;5016581;28;20440;-56
2023/10/15 00:46:24;;;;;;;8.52;4.63;;;28.10;99.90;;;;;;5031592;28;20057;-56
2023/10/15 00:48:51;;;;;;;6.03;4.60;;;28.10;99.90;;;;;;5014188;28;20013;-53
2023/10/15 00:51:20;;;;;;;6.90;4.87;;;28.00;99.90;;;;;;5031725;28;20041;-54
2023/10/15 00:53:58;;;;;;;8.05;5.10;;;28.00;99.90;;;;;;5031879;28;20017;-54
2023/10/15 00:56:35;;;;;;;7.25;4.90;;;28.00;99.90;;;;;;5035133;28;20377;-54
2023/10/15 01:01:35;;;;;;;7.63;5.28;;;28.00;99.90;;;;;;5035638;28;20047;-54
2023/10/15 01:04:06;;;;;;;5.57;3.70;;;28.00;99.90;;;;;;5034866;28;20037;-53
2023/10/15 01:06:41;;;;;;;9.35;4.72;;;28.00;99.90;;;;;;5035113;28;20021;-54
2023/10/15 01:09:19;;;;;;;6.53;4.45;;;28.00;99.90;;;;;;5034768;28;20033;-54
2023/10/15 01:11:55;;;;;;;7.78;4.75;;;28.00;99.90;;;;;;5035085;28;20032;-55
2023/10/15 01:14:27;;;;;;;6.90;4.88;;;27.90;99.90;;;;;;5035033;28;20025;-55
2023/10/15 01:16:54;;;;;;;7.97;4.75;;;28.00;99.90;;;;;;5034791;28;20033;-54
2023/10/15 01:19:31;;;;;;;6.30;4.60;;;28.00;99.90;;;;;;5034803;28;20018;-54
2023/10/15 01:21:57;;;;;;;7.65;4.20;;;27.90;99.90;;;;;;5034606;28;20116;-54
2023/10/15 01:24:33;;;;;;;8.30;4.70;;;27.90;99.90;;;;;;5034660;28;20025;-54
2023/10/15 01:27:00;;;;;;;7.07;5.03;;;27.90;99.90;;;;;;5034484;28;20485;-55
2023/10/15 01:29:27;;;;;;;5.43;4.05;;;27.90;99.90;;;;;;5034616;28;20116;-54
2023/10/15 01:32:02;;;;;;;6.50;4.38;;;27.90;99.90;;;;;;5034629;28;20021;-55
2023/10/15 01:34:29;;;;;;;9.90;4.32;;;27.90;99.90;;;;;;5016644;28;20051;-55
2023/10/15 01:36:57;;;;;;;7.00;4.82;;;27.90;99.90;;;;;;5034358;28;20040;-54
2023/10/15 01:39:37;;;;;;;7.30;4.43;;;27.90;99.90;;;;;;5034369;28;20470;-55
2023/10/15 01:42:06;;;;;;;7.75;4.43;;;27.80;99.90;;;;;;5034244;28;20458;-55
2023/10/15 01:44:47;;;;;;;6.20;4.30;;;27.80;99.90;;;;;;5034231;28;20033;-55
2023/10/15 01:47:13;;;;;;;6.35;4.38;;;27.80;99.90;;;;;;5034241;28;20071;-54
2023/10/15 01:49:39;;;;;;;7.03;4.78;;;27.80;99.90;;;;;;5034180;28;20018;-55
2023/10/15 01:52:24;;;;;;;5.60;4.50;;;27.80;99.90;;;;;;5034016;28;20026;-54
2023/10/15 01:54:49;;;;;;;5.18;4.00;;;27.80;99.90;;;;;;5034411;28;20021;-55
2023/10/15 01:57:15;;;;;;;7.15;4.78;;;27.80;99.90;;;;;;5034022;28;20037;-54
2023/10/15 01:59:45;;;;;;;7.05;4.82;;;27.80;99.90;;;;;;5033890;28;20029;-55
2023/10/15 02:02:17;;;;;;;4.70;3.60;;;27.80;99.90;;;;;;5034418;28;20048;-55
2023/10/15 02:04:46;;;;;;;7.40;5.18;;;27.80;99.90;;;;;;5033806;28;20034;-55
2023/10/15 02:07:22;;;;;;;6.70;4.38;;;27.70;99.90;;;;;;5032962;28;20506;-55
2023/10/15 02:09:48;;;;;;;6.75;4.80;;;27.80;99.90;;;;;;5033937;28;20037;-55
2023/10/15 02:12:17;;;;;;;6.18;4.28;;;27.80;99.90;;;;;;5033771;28;20045;-54
2023/10/15 02:14:44;;;;;;;6.15;4.15;;;27.70;99.90;;;;;;5033666;28;20022;-54
2023/10/15 02:17:13;;;;;;;6.33;3.97;;;27.70;99.90;;;;;;5015772;28;20109;-54
2023/10/15 02:19:42;;;;;;;7.22;4.53;;;27.70;99.90;;;;;;5033551;28;20290;-54
2023/10/15 02:22:12;;;;;;;8.60;4.32;;;27.70;99.90;;;;;;5015829;28;20072;-55
2023/10/15 02:24:49;;;;;;;6.85;4.78;;;27.70;99.90;;;;;;5033478;28;20052;-54
2023/10/15 02:27:34;;;;;;;6.53;4.68;;;27.70;99.90;;;;;;5016672;28;20477;-54
2023/10/15 02:30:00;;;;;;;6.13;4.25;;;27.70;99.90;;;;;;5033430;28;20033;-55
2023/10/15 02:34:54;;;;;;;6.20;3.92;;;27.70;99.90;;;;;;5033691;28;20492;-55
2023/10/15 02:37:28;;;;;;;7.25;4.20;;;27.70;99.90;;;;;;5015711;28;20056;-55
2023/10/15 02:39:58;;;;;;;5.50;4.35;;;27.70;99.90;;;;;;5033441;28;20060;-55
2023/10/15 02:42:31;;;;;;;6.47;4.57;;;27.60;99.90;;;;;;5033536;28;20416;-55
2023/10/15 02:45:01;;;;;;;6.05;4.30;;;27.60;99.90;;;;;;5033068;28;20069;-55
2023/10/15 02:47:41;;;;;;;6.50;4.57;;;27.70;99.90;;;;;;5033080;28;20064;-55
2023/10/15 02:50:10;;;;;;;6.20;4.30;;;27.60;99.90;;;;;;5032944;28;20100;-55
2023/10/15 02:52:36;;;;;;;6.20;4.50;;;27.60;99.90;;;;;;5032919;28;20023;-55
2023/10/15 02:55:10;;;;;;;6.82;4.38;;;27.60;99.90;;;;;;5032928;28;20144;-60
2023/10/15 02:57:40;;;;;;;5.32;3.72;;;27.60;99.90;;;;;;5032924;28;20028;-55
2023/10/15 03:00:28;;;;;;;5.63;4.03;;;27.60;99.90;;;;;;5033352;28;20382;-56
2023/10/15 03:02:57;;;;;;;6.22;4.50;;;27.60;99.90;;;;;;5033065;28;20120;-55
2023/10/15 03:05:30;;;;;;;5.88;4.25;;;27.60;99.90;;;;;;5032917;28;20037;-56
2023/10/15 03:07:59;;;;;;;4.18;3.78;;;27.60;99.90;;;;;;5032828;28;20025;-55
2023/10/15 03:13:32;;;;;;;6.38;4.03;;;27.60;99.90;;;;;;4991186;28;20031;-55
2023/10/15 03:16:07;;;;;;;5.75;4.13;;;27.60;99.90;;;;;;4991265;28;20045;-55
2023/10/15 03:18:34;;;;;;;5.80;4.60;;;27.60;99.90;;;;;;5012153;28;20026;-55
2023/10/15 03:21:09;;;;;;;7.65;4.45;;;27.50;99.90;;;;;;5032451;28;20025;-55
2023/10/15 03:23:36;;;;;;;5.45;4.00;;;27.50;99.90;;;;;;5014640;28;20394;-55
2023/10/15 03:26:02;;;;;;;4.90;3.88;;;27.50;99.90;;;;;;5032531;28;20164;-55
2023/10/15 03:28:28;;;;;;;6.82;4.03;;;27.50;99.90;;;;;;5032567;28;20009;-55
2023/10/15 03:30:57;;;;;;;6.00;4.65;;;27.50;99.90;;;;;;5032841;28;20025;-55
2023/10/15 03:33:23;;;;;;;5.40;4.07;;;27.50;99.90;;;;;;5032576;28;20497;-55
2023/10/15 03:35:55;;;;;;;4.65;4.00;;;27.50;99.90;;;;;;5032367;28;20033;-56
2023/10/15 03:38:32;;;;;;;6.03;4.63;;;27.50;99.90;;;;;;5032201;28;20021;-55
2023/10/15 03:41:11;;;;;;;5.97;4.03;;;27.50;99.90;;;;;;5016175;28;20017;-54
2023/10/15 03:43:37;;;;;;;7.82;4.78;;;27.50;99.90;;;;;;5014533;28;20393;-54
2023/10/15 03:46:18;;;;;;;7.32;4.53;;;27.50;99.90;;;;;;5032124;28;20036;-54
2023/10/15 03:48:48;;;;;;;8.63;4.43;;;27.50;99.90;;;;;;5032167;28;20413;-53
2023/10/15 03:51:16;;;;;;;6.68;4.20;;;27.50;99.90;;;;;;5032122;28;20032;-53
2023/10/15 03:53:43;;;;;;;4.88;3.85;;;27.50;99.90;;;;;;5032061;28;20026;-53
2023/10/15 03:56:09;;;;;;;7.43;4.15;;;27.40;99.90;;;;;;5032077;28;20022;-53
2023/10/15 03:58:35;;;;;;;6.65;4.50;;;27.40;99.90;;;;;;5032080;28;20080;-54
2023/10/15 04:01:11;;;;;;;5.07;4.53;;;27.40;99.90;;;;;;5032403;28;20041;-54
2023/10/15 04:03:42;;;;;;;5.28;3.92;;;27.40;99.90;;;;;;5032028;28;20029;-53
2023/10/15 04:06:07;;;;;;;6.70;4.35;;;27.40;99.90;;;;;;5031990;28;20025;-54
2023/10/15 04:08:33;;;;;;;5.35;4.03;;;27.40;99.90;;;;;;5032053;28;20429;-53
2023/10/15 04:11:00;;;;;;;6.30;4.32;;;27.40;99.90;;;;;;5031950;28;20021;-54
2023/10/15 04:13:27;;;;;;;6.13;4.05;;;27.40;99.90;;;;;;5014409;28;20053;-54
2023/10/15 04:15:54;;;;;;;4.50;3.60;;;27.40;99.90;;;;;;5031983;28;20029;-53
2023/10/15 04:18:24;;;;;;;8.63;4.28;;;27.40;99.90;;;;;;5014298;28;20387;-53
2023/10/15 04:20:53;;;;;;;5.32;3.90;;;27.40;99.90;;;;;;5031938;28;20095;-54
2023/10/15 04:23:32;;;;;;;5.95;4.45;;;27.40;99.90;;;;;;5031853;28;20436;-54
2023/10/15 04:26:11;;;;;;;4.95;3.75;;;27.40;99.90;;;;;;5031994;28;20033;-54
2023/10/15 04:28:41;;;;;;;5.38;3.75;;;27.40;99.90;;;;;;5031873;28;20021;-54
2023/10/15 04:31:12;;;;;;;5.80;3.60;;;27.40;99.90;;;;;;5035590;28;20045;-54
2023/10/15 04:33:41;;;;;;;5.43;3.70;;;27.40;99.90;;;;;;5017739;28;20030;-54
2023/10/15 04:36:10;;;;;;;6.28;4.50;;;27.30;99.90;;;;;;5035488;28;20631;-54
2023/10/15 04:38:37;;;;;;;5.85;3.97;;;27.30;99.90;;;;;;5035464;28;20038;-54
2023/10/15 04:41:03;;;;;;;8.52;4.35;;;27.30;99.90;;;;;;5035483;28;20374;-54
2023/10/15 04:43:40;;;;;;;4.20;3.50;;;27.30;99.90;;;;;;5035460;28;20030;-54
2023/10/15 04:46:16;;;;;;;5.88;4.35;;;27.30;99.90;;;;;;5035302;28;20365;-54
2023/10/15 04:48:45;;;;;;;5.03;4.05;;;27.30;99.90;;;;;;5035393;28;20025;-54
2023/10/15 04:51:13;;;;;;;5.13;4.10;;;27.30;99.90;;;;;;5017845;28;20397;-54
2023/10/15 04:53:49;;;;;;;4.65;3.55;;;27.30;99.90;;;;;;5017429;28;20025;-54
2023/10/15 04:56:16;;;;;;;4.60;3.78;;;27.30;99.90;;;;;;5035082;28;20034;-54
2023/10/15 04:58:42;;;;;;;5.35;3.92;;;27.20;99.90;;;;;;5034968;28;20029;-54
2023/10/15 05:01:08;;;;;;;6.13;4.20;;;27.30;99.90;;;;;;5034775;28;20049;-54
2023/10/15 05:03:38;;;;;;;6.28;4.13;;;27.30;99.90;;;;;;5034953;28;20014;-54
2023/10/15 05:06:06;;;;;;;5.15;3.70;;;27.20;99.90;;;;;;5035074;28;20029;-54
2023/10/15 05:08:32;;;;;;;5.72;4.25;;;27.30;99.90;;;;;;5034938;28;20044;-54
2023/10/15 05:10:58;;;;;;;6.10;3.83;;;27.20;99.90;;;;;;5035106;28;20508;-54
2023/10/15 05:13:27;;;;;;;4.88;4.00;;;27.20;99.90;;;;;;5034778;28;20053;-54
2023/10/15 05:15:53;;;;;;;6.22;4.65;;;27.20;99.90;;;;;;5034745;28;20017;-54
2023/10/15 05:18:19;;;;;;;6.63;4.50;;;27.20;99.90;;;;;;5034648;28;20055;-54
2023/10/15 05:20:50;;;;;;;7.22;3.78;;;27.20;99.90;;;;;;5034918;28;20029;-54
2023/10/15 05:23:17;;;;;;;6.30;3.83;;;27.20;99.90;;;;;;5034615;28;20363;-54
2023/10/15 05:25:43;;;;;;;5.20;3.90;;;27.20;99.90;;;;;;5034771;28;20131;-54
2023/10/15 05:28:14;;;;;;;4.28;3.67;;;27.20;99.90;;;;;;5034579;28;20482;-54
2023/10/15 05:30:40;;;;;;;4.38;3.75;;;27.20;99.90;;;;;;5034501;28;20121;-54
2023/10/15 05:33:07;;;;;;;7.13;3.85;;;27.20;99.90;;;;;;5034526;28;20018;-54
2023/10/15 05:35:43;;;;;;;5.82;3.88;;;27.20;99.90;;;;;;5034524;28;20045;-54
2023/10/15 05:38:09;;;;;;;4.88;4.05;;;27.10;99.90;;;;;;5034358;28;20477;-54
2023/10/15 05:40:39;;;;;;;4.93;3.53;;;27.20;99.90;;;;;;5034103;28;20374;-54
2023/10/15 05:43:05;;;;;;;6.45;4.10;;;27.20;99.90;;;;;;5034275;28;20035;-54
2023/10/15 05:45:31;;;;;;;5.88;4.05;;;27.10;99.90;;;;;;5034421;28;20037;-54
2023/10/15 05:47:56;;;;;;;5.25;3.40;;;27.10;99.90;;;;;;5034059;28;20033;-54
2023/10/15 05:50:23;;;;;;;5.45;3.78;;;27.10;99.90;;;;;;5034124;28;20026;-54
2023/10/15 05:52:50;;;;;;;4.82;3.45;;;27.10;99.90;;;;;;5034129;28;20026;-54
2023/10/15 05:55:17;;;;;;;4.70;3.15;;;27.20;99.90;;;;;;5033886;28;20033;-54
2023/10/15 05:57:43;;;;;;;6.13;3.70;;;27.10;99.90;;;;;;5016222;28;20029;-54
2023/10/15 06:00:19;;;;;;;5.22;4.00;;;27.10;99.90;;;;;;5034051;28;20029;-54
2023/10/15 06:02:45;;;;;;;6.05;3.83;;;27.10;99.90;;;;;;5033851;28;20037;-54
2023/10/15 06:05:13;;;;;;;5.20;3.95;;;27.10;99.90;;;;;;5033609;28;20029;-54
2023/10/15 06:07:45;;;;;;;;;;;27.10;99.90;;;;;;5016450;28;20386;-54
2023/10/15 06:10:11;;;;;;;5.43;3.60;;;27.10;99.90;;;;;;5033700;28;20000;-54
2023/10/15 06:12:38;;;;;;;7.20;4.22;;;27.10;99.90;;;;;;5033747;28;20029;-54
2023/10/15 06:15:06;;;;;;;4.97;3.80;;;27.00;99.90;;;;;;5034024;28;20048;-54
2023/10/15 06:17:32;;;;;;;6.85;4.13;;;27.10;99.90;;;;;;5033736;28;20025;-54
2023/10/15 06:19:59;;;;;;;5.13;3.65;;;27.10;99.90;;;;;;5033657;28;20068;-54
2023/10/15 06:22:25;;;;;;;4.90;3.90;;;27.10;99.90;;;;;;5033456;28;20101;-53
2023/10/15 06:24:52;;;;;;;4.35;3.08;;;27.00;99.90;;;;;;5016028;28;20037;-54
2023/10/15 06:27:18;;;;;;;5.68;3.92;;;27.00;99.90;;;;;;5033320;28;20022;-54
2023/10/15 06:29:44;;;;;;;5.97;3.53;;;27.00;99.90;;;;;;5033462;28;20196;-55
2023/10/15 06:32:13;;;;;;;4.53;3.50;;;27.00;99.90;;;;;;5033286;28;20025;-54
2023/10/15 06:34:39;;;;;;;4.50;3.53;;;27.00;99.90;;;;;;5033287;28;20438;-54
2023/10/15 06:37:08;;;;;;;5.25;3.90;;;27.00;99.90;;;;;;5033591;28;20366;-54
2023/10/15 06:39:34;;;;;;;5.13;3.47;;;27.00;99.90;;;;;;5033470;28;20028;-54
2023/10/15 06:42:00;;;;;;;7.33;4.20;;;27.00;99.90;;;;;;5033180;28;20023;-54
2023/10/15 06:44:26;;;;;;;5.70;4.22;;;27.00;99.90;;;;;;5033003;28;20037;-54
2023/10/15 06:46:52;;;;;;;5.05;3.80;;;27.00;99.90;;;;;;5033014;28;20018;-54
2023/10/15 06:49:18;;;;;;;5.38;3.45;;;27.00;99.90;;;;;;5033372;28;20021;-54
2023/10/15 06:51:45;;;;;;;4.55;3.15;;;27.00;99.90;;;;;;5032368;28;20032;-54
2023/10/15 06:54:11;;;;;;;5.00;3.47;;;27.00;99.90;;;;;;5032806;28;20064;-55
2023/10/15 06:56:38;;;;;;;5.60;3.95;;;27.00;99.90;;;;;;5033041;28;20036;-54
2023/10/15 06:59:04;;;;;;;3.75;3.25;;;27.00;99.90;;;;;;5032992;28;20060;-54
2023/10/15 07:01:30;;;;;;;5.07;3.50;;;27.00;99.90;;;;;;5032614;28;20049;-54
2023/10/15 07:03:56;;;;;;;5.30;3.67;;;27.00;99.90;;;;;;5032663;28;20040;-54
2023/10/15 07:06:23;;;;;;;5.00;3.90;;;27.00;99.90;;;;;;5032706;28;20029;-54
2023/10/15 07:08:50;;;;;;;4.43;3.45;;;27.00;99.90;;;;;;5032692;28;20123;-54
2023/10/15 07:11:16;;;;;;;4.75;3.22;;;27.00;99.90;;;;;;5032680;28;20027;-54
2023/10/15 07:13:42;;;;;;;4.95;3.17;;;27.10;99.90;;;;;;5032758;28;20104;-55
2023/10/15 07:16:08;;;;;;;4.22;3.67;;;27.10;99.90;;;;;;5015217;28;20062;-54
2023/10/15 07:18:34;;;;;;;5.07;3.78;;;27.10;99.90;;;;;;5032811;28;20025;-55
2023/10/15 07:20:59;;;;;;;6.20;3.83;;;27.10;99.90;;;;;;5032412;28;20485;-54
2023/10/15 07:23:25;;;;;;;4.10;2.97;;;27.10;99.90;;;;;;5032416;28;20385;-54
2023/10/15 07:25:51;;;;;;;5.03;3.40;;;27.10;99.90;;;;;;5032604;28;20041;-55
2023/10/15 07:28:17;;;;;;;4.00;3.03;;;27.20;99.90;;;;;;5032434;28;20411;-55
2023/10/15 07:30:43;;;;;;;3.95;3.55;;;27.20;99.90;;;;;;5032435;28;20064;-54
2023/10/15 07:33:10;;;;;;;4.93;3.17;;;27.20;99.90;;;;;;5032537;28;20390;-55
2023/10/15 07:35:35;;;;;;;4.77;3.33;;;27.20;99.90;;;;;;5014764;28;20029;-55
2023/10/15 07:38:04;;;;;;;6.53;3.58;;;27.30;99.90;;;;;;5032165;28;20266;-55
2023/10/15 07:40:32;;;;;;;5.60;3.53;;;27.30;99.90;;;;;;5014417;28;20041;-55
2023/10/15 07:42:59;;;;;;;4.55;3.45;;;27.30;99.90;;;;;;5032233;28;20535;-55
2023/10/15 07:45:27;;;;;;;6.32;3.35;;;27.30;99.90;;;;;;5014304;28;20052;-55
2023/10/15 07:47:55;;;;;;;4.82;3.53;;;27.40;99.90;;;;;;5032130;28;20032;-55
2023/10/15 07:50:23;;;;;;;6.15;3.88;;;27.40;99.90;;;;;;5032134;28;20096;-55
2023/10/15 07:52:50;;;;;;;4.63;3.67;;;27.40;99.90;;;;;;5032236;28;20147;-54
2023/10/15 07:55:17;;;;;;;4.57;2.92;;;27.40;99.90;;;;;;5032101;28;20013;-55
2023/10/15 07:57:43;;;;;;;4.00;3.10;;;27.40;99.90;;;;;;5032020;28;20025;-54
2023/10/15 08:00:22;;;;;;;5.82;3.88;;;27.40;99.90;;;;;;5032148;28;20269;-54
2023/10/15 08:02:52;;;;;;;4.13;3.60;;;27.50;99.90;;;;;;5032245;28;20053;-54
2023/10/15 08:05:20;;;;;;;4.85;3.30;;;27.50;99.90;;;;;;5035986;28;20030;-54
2023/10/15 08:07:48;;;;;;;6.00;3.58;;;27.50;99.90;;;;;;5036095;28;20033;-54
2023/10/15 08:10:14;;;;;;;5.75;3.45;;;27.50;99.90;;;;;;5035941;28;20087;-54
2023/10/15 08:12:41;;;;;;;4.13;3.22;;;27.50;99.90;;;;;;5036194;28;20052;-54
2023/10/15 08:15:07;;;;;;;5.97;3.83;;;27.50;99.90;;;;;;5036091;28;20109;-55
2023/10/15 08:17:34;;;;;;;4.22;3.45;;;27.60;99.90;;;;;;5035859;28;20610;-54
2023/10/15 08:20:00;;;;;;;4.15;3.10;;;27.60;99.90;;;;;;5018050;28;20026;-54
2023/10/15 08:22:28;;;;;;;5.00;3.40;;;27.60;99.90;;;;;;5035746;28;20500;-54
2023/10/15 08:24:55;;;;;;;4.53;3.47;;;27.60;99.90;;;;;;5035679;28;20037;-54
2023/10/15 08:27:21;;;;;;;5.93;3.40;;;27.60;99.90;;;;;;5018080;28;20052;-54
2023/10/15 08:29:47;;;;;;;3.53;3.20;;;27.60;99.90;;;;;;5035514;28;20026;-55
2023/10/15 08:32:20;;;;;;;4.13;3.17;;;27.70;99.90;;;;;;5035755;28;20092;-54
2023/10/15 08:34:47;;;;;;;4.00;3.25;;;27.70;99.90;;;;;;5035622;28;20116;-54
2023/10/15 08:37:13;;;;;;;5.65;3.58;;;27.70;99.90;;;;;;5035561;28;20028;-55
2023/10/15 08:39:39;;;;;;;7.47;3.67;;;27.70;99.90;;;;;;5035776;28;20477;-54
2023/10/15 08:42:11;;;;;;;7.05;3.85;;;27.70;99.90;;;;;;5035399;28;20017;-54
2023/10/15 08:44:40;;;;;;;5.97;3.30;;;27.70;99.90;;;;;;5035288;28;20120;-54
2023/10/15 08:47:10;;;;;;;4.28;3.53;;;27.70;99.90;;;;;;5035342;28;20117;-54
2023/10/15 08:49:38;;;;;;;4.47;3.30;;;27.70;99.90;;;;;;5035304;28;20509;-54
2023/10/15 08:52:06;;;;;;;5.38;3.75;;;27.70;99.90;;;;;;5035178;28;20539;-54
2023/10/15 08:54:38;;;;;;;5.32;3.92;;;27.80;99.90;;;;;;5035225;28;20053;-54
2023/10/15 08:57:07;;;;;;;5.75;3.40;;;27.80;99.90;;;;;;5035159;28;20025;-54
2023/10/15 08:59:33;;;;;;;5.13;3.30;;;27.80;99.90;;;;;;5035157;28;20565;-54
2023/10/15 09:01:59;;;;;;;5.00;3.75;;;27.90;99.90;;;;;;5034761;28;20042;-54
2023/10/15 09:04:27;;;;;;;5.25;3.38;;;27.90;99.90;;;;;;5017214;28;20037;-55
2023/10/15 09:06:52;;;;;;;;;;;27.90;99.90;;;;;;5035362;28;20071;-55
2023/10/15 09:09:18;;;;;;;5.70;3.85;;;27.90;99.90;;;;;;5034845;28;19996;-55
2023/10/15 09:11:44;;;;;;;4.88;3.05;;;28.00;99.90;;;;;;5034922;28;20025;-55
2023/10/15 09:14:13;;;;;;;5.13;3.78;;;27.90;99.90;;;;;;5035104;28;20028;-55
2023/10/15 09:16:48;;;;;;;4.90;3.08;;;27.90;99.90;;;;;;5034263;28;20034;-55
2023/10/15 09:19:14;;;;;;;4.82;3.80;;;28.00;99.90;;;;;;5035002;28;20390;-55
2023/10/15 09:21:40;;;;;;;4.30;3.22;;;28.00;99.90;;;;;;5034778;28;20100;-55
2023/10/15 09:24:06;;;;;;;6.22;3.58;;;28.00;99.90;;;;;;5034457;28;20030;-54
2023/10/15 09:26:38;;;;;;;4.88;3.25;;;28.00;99.90;;;;;;5034664;28;20021;-55
2023/10/15 09:29:19;;;;;;;4.50;3.50;;;28.00;99.90;;;;;;5034534;28;20026;-56
2023/10/15 09:31:46;;;;;;;6.43;4.28;;;28.10;99.90;;;;;;5034509;28;20052;-55
2023/10/15 09:34:12;;;;;;;4.25;3.53;;;28.10;99.90;;;;;;5034527;28;20100;-54
2023/10/15 09:36:38;;;;;;;6.30;3.33;;;28.20;99.90;;;;;;5034381;28;20112;-55
2023/10/15 09:39:13;;;;;;;4.57;3.88;;;28.20;99.90;;;;;;5034473;28;20049;-54
2023/10/15 09:41:41;;;;;;;4.65;3.17;;;28.20;99.90;;;;;;5034201;28;20084;-54
2023/10/15 09:44:14;;;;;;;4.47;3.40;;;28.30;99.90;;;;;;5034241;28;20022;-55
2023/10/15 09:46:44;;;;;;;5.93;3.65;;;28.30;99.90;;;;;;5034217;28;20025;-54
2023/10/15 09:49:12;;;;;;;5.57;3.72;;;28.30;99.90;;;;;;5034047;28;20393;-54
2023/10/15 09:51:42;;;;;;;7.32;3.72;;;28.40;99.90;;;;;;5034088;28;20061;-55
2023/10/15 09:54:11;;;;;;;5.65;3.58;;;28.40;99.90;;;;;;5033886;28;20025;-55
2023/10/15 09:56:41;;;;;;;6.05;3.72;;;28.40;99.90;;;;;;5034025;28;20025;-54
2023/10/15 09:59:09;;;;;;;5.43;3.42;;;28.50;99.90;;;;;;5033975;28;20111;-55
2023/10/15 10:01:44;;;;;;;6.95;3.65;;;28.50;99.90;;;;;;5033731;28;20053;-54
2023/10/15 10:04:52;;;;;;;5.22;3.47;;;28.50;99.90;;;;;;5033799;28;20121;-54
2023/10/15 10:07:36;;;;;;;6.40;3.47;;;28.50;99.90;;;;;;4972796;28;20034;-54
2023/10/15 10:10:17;;;;;;;6.60;4.00;;;28.60;99.90;;;;;;5031783;28;20034;-54
2023/10/15 10:13:21;;;;;;;6.05;3.58;;;28.60;99.90;;;;;;5033811;28;20033;-55
2023/10/15 10:15:54;;;;;;;5.38;3.78;;;28.60;99.90;;;;;;4972890;28;20023;-55
2023/10/15 10:18:24;;;;;;;6.47;4.13;;;28.70;99.90;;;;;;4972653;28;20037;-54
2023/10/15 10:20:50;;;;;;;5.38;3.63;;;28.70;99.90;;;;;;5005477;28;20029;-55
2023/10/15 10:23:17;;;;;;;6.25;3.55;;;28.80;99.90;;;;;;5016018;28;20405;-54
2023/10/15 10:25:45;;;;;;;6.95;4.55;;;28.80;99.90;;;;;;5015715;28;20134;-55
2023/10/15 10:28:16;;;;;;;4.97;3.83;;;28.80;99.90;;;;;;5032466;28;20025;-54
2023/10/15 10:30:56;;;;;;;4.95;3.03;;;28.80;99.90;;;;;;5033326;28;20096;-54
2023/10/15 10:33:46;;;;;;;4.97;3.65;;;28.90;99.90;;;;;;5033490;28;20029;-54
2023/10/15 10:36:19;;;;;;;4.53;3.53;;;28.90;99.90;;;;;;5015545;28;20386;-55
2023/10/15 10:39:07;;;;;;;5.43;3.65;;;29.00;99.90;;;;;;5033493;28;20026;-55
2023/10/15 10:41:40;;;;;;;6.60;3.80;;;29.00;99.90;;;;;;5033228;28;20082;-55
2023/10/15 10:44:12;;;;;;;4.70;3.53;;;29.00;99.90;;;;;;5033033;28;20038;-55
2023/10/15 10:46:44;;;;;;;4.47;3.55;;;29.00;99.90;;;;;;5033086;28;20060;-54
2023/10/15 10:49:16;;;;;;;6.03;3.85;;;29.10;99.90;;;;;;5033050;28;20024;-55
2023/10/15 10:52:02;;;;;;;6.60;4.10;;;29.10;99.90;;;;;;5033157;28;20025;-55
2023/10/15 10:54:28;;;;;;;5.80;4.13;;;29.10;99.90;;;;;;5032936;28;20053;-55
2023/10/15 10:56:55;;;;;;;6.07;3.72;;;29.10;99.90;;;;;;5032837;28;20111;-55
2023/10/15 10:59:21;;;;;;;;;;;29.20;99.90;;;;;;5033075;28;20036;-55
2023/10/15 11:01:47;;;;;;;4.63;3.88;;;29.20;99.90;;;;;;5032823;28;19917;-55
2023/10/15 11:04:15;;;;;;;9.10;4.50;;;29.20;99.90;;;;;;5032641;28;20033;-55
2023/10/15 11:06:45;;;;;;;4.85;3.88;;;29.30;99.90;;;;;;5032723;28;20021;-55
2023/10/15 11:09:19;;;;;;;5.35;3.47;;;29.30;99.90;;;;;;5032724;28;20104;-55
2023/10/15 11:11:49;;;;;;;4.65;3.38;;;29.30;99.90;;;;;;5032714;28;20030;-55
2023/10/15 11:14:16;;;;;;;4.70;3.92;;;29.40;99.90;;;;;;5032549;28;20025;-55
2023/10/15 11:16:42;;;;;;;;;;;29.40;99.90;;;;;;5032926;28;20083;-55
2023/10/15 11:19:30;;;;;;;6.13;4.13;;;29.40;99.90;;;;;;5032509;28;19905;-54
2023/10/15 11:21:56;;;;;;;5.65;3.83;;;29.40;99.90;;;;;;5032586;28;20025;-55
2023/10/15 11:24:24;;;;;;;6.28;4.28;;;29.40;99.90;;;;;;5032326;28;20140;-54
2023/10/15 11:26:50;;;;;;;5.65;3.63;;;29.50;99.90;;;;;;5032731;28;20445;-54
2023/10/15 11:29:20;;;;;;;6.13;4.15;;;29.50;99.90;;;;;;5032371;28;20021;-55
2023/10/15 11:32:11;;;;;;;4.88;3.45;;;29.50;99.90;;;;;;5032342;28;20032;-55
2023/10/15 11:34:39;;;;;;;4.88;3.35;;;29.50;99.90;;;;;;5032306;28;20409;-55
2023/10/15 11:37:09;;;;;;;4.88;3.38;;;29.60;99.90;;;;;;5032334;28;20041;-55
2023/10/15 11:39:38;;;;;;;7.60;4.10;;;29.60;99.90;;;;;;5031943;28;20021;-54
2023/10/15 11:42:06;;;;;;;6.03;3.58;;;29.50;99.90;;;;;;5032223;28;20021;-55
2023/10/15 11:44:32;;;;;;;5.05;4.03;;;29.60;99.90;;;;;;5032075;28;20512;-55
2023/10/15 11:47:00;;;;;;;5.00;4.10;;;29.60;99.90;;;;;;5032258;28;20030;-55
2023/10/15 11:49:27;;;;;;;5.40;3.67;;;29.70;99.90;;;;;;5032203;28;20401;-55
2023/10/15 11:51:56;;;;;;;6.78;3.63;;;29.60;99.90;;;;;;5032071;28;20029;-55
2023/10/15 11:54:32;;;;;;;4.88;3.60;;;29.60;99.90;;;;;;5032244;28;20032;-55
2023/10/15 11:57:00;;;;;;;5.85;4.10;;;29.70;99.90;;;;;;5032192;28;20097;-55
2023/10/15 11:59:26;;;;;;;7.22;3.65;;;29.70;99.90;;;;;;5014229;28;20071;-55
2023/10/15 12:01:53;;;;;;;7.70;4.28;;;29.70;99.90;;;;;;5031926;28;20079;-55
2023/10/15 12:04:20;;;;;;;7.60;3.55;;;29.70;99.90;;;;;;5032034;28;20033;-55
2023/10/15 12:06:49;;;;;;;5.97;3.90;;;29.70;99.90;;;;;;5031911;28;20351;-55
2023/10/15 12:09:24;;;;;;;6.53;4.07;;;29.70;99.90;;;;;;5031976;28;20029;-55
2023/10/15 12:11:53;;;;;;;7.70;4.72;;;29.70;99.90;;;;;;5014305;28;20056;-55
2023/10/15 12:14:19;;;;;;;6.20;3.90;;;29.70;99.90;;;;;;5032033;28;20022;-54
2023/10/15 12:16:45;;;;;;;6.47;4.28;;;29.70;99.90;;;;;;5031811;28;20025;-55
2023/10/15 12:19:11;;;;;;;7.00;3.85;;;29.80;99.90;;;;;;5031750;28;20095;-55
2023/10/15 12:21:38;;;;;;;5.18;3.85;;;29.80;99.90;;;;;;5031929;28;20021;-55
2023/10/15 12:24:05;;;;;;;4.97;4.32;;;29.70;99.90;;;;;;5031818;28;20034;-55
2023/10/15 12:26:31;;;;;;;6.45;3.78;;;29.80;99.90;;;;;;5013977;28;20029;-55
2023/10/15 12:28:56;;;;;;;7.22;4.28;;;29.80;99.90;;;;;;5031732;28;20036;-55
2023/10/15 12:31:23;;;;;;;8.23;4.68;;;29.70;99.90;;;;;;5031793;28;20033;-55
2023/10/15 12:33:49;;;;;;;7.30;4.43;;;29.80;99.90;;;;;;5013797;28;20523;-55
2023/10/15 12:36:14;;;;;;;6.32;4.18;;;29.80;99.90;;;;;;5031525;28;20029;-55
2023/10/15 12:38:42;;;;;;;7.85;4.82;;;29.80;99.90;;;;;;5031566;28;20079;-55
2023/10/15 12:41:09;;;;;;;7.43;4.82;;;29.80;99.90;;;;;;5031504;28;20060;-54
2023/10/15 12:43:37;;;;;;;8.00;4.78;;;29.80;99.90;;;;;;5031463;28;20018;-54
2023/10/15 12:46:03;;;;;;;7.43;4.78;;;29.80;99.90;;;;;;5031304;28;20061;-55
2023/10/15 12:48:29;;;;;;;6.38;4.63;;;29.80;99.90;;;;;;5031303;28;20489;-55
2023/10/15 12:50:56;;;;;;;7.28;5.00;;;29.80;99.90;;;;;;5033528;28;20037;-54
2023/10/15 12:53:25;;;;;;;7.95;5.38;;;29.80;99.90;;;;;;5035467;28;20022;-55
2023/10/15 12:55:52;;;;;;;7.95;5.25;;;29.90;99.90;;;;;;5035279;28;20021;-54
2023/10/15 12:58:18;;;;;;;8.25;4.80;;;29.80;99.90;;;;;;5035020;28;20026;-54
2023/10/15 13:00:48;;;;;;;7.30;5.20;;;29.90;99.90;;;;;;5034669;28;20045;-54
2023/10/15 13:03:15;;;;;;;7.90;5.20;;;29.80;99.90;;;;;;5034916;28;20029;-54
2023/10/15 13:05:41;;;;;;;7.72;5.45;;;29.90;99.90;;;;;;5034631;28;20079;-54
2023/10/15 13:08:07;;;;;;;8.00;5.20;;;29.80;99.90;;;;;;5034710;28;20449;-54